Super Express — WAB6372 — position and weather

sailwx.info

Track history (hours):
 
Tides and Currents Weather Stations Pressure Air Temp Water Temp Dewpoint Dewpoint Depression Visibility Wind Speed Wind Dir Waves Ship Positions

Super Express

Owner: CATALINA CHANNEL EXPRESS, Long Beach, CA. More information available from US FCC via Universal Licensing System and Coast Guard Vessel Documentation Center.

Last reported at 2018-Feb-20 03:10 UTC. Time now 2018-Feb-23 16:52 UTC.
Position N 33°45' W 118°16'.

Length 45 m; draft 1 m.

Type: High speed craft. MMSI: 366943940.

Date/timePositionNaut miles runAvg speedWind from/ knotsBaromVisibWave heightAir tempDewpointWater temp
2018-Feb-20 03:10N 33°45' W 118°16'0 0.0
2018-Feb-20 02:59N 33°45' W 118°16'0 0.0
2018-Feb-20 02:30N 33°45' W 118°16'1 2.7
2018-Feb-20 02:00N 33°44' W 118°16'7 3.0
2018-Feb-19 23:32N 33°36' W 118°16'123.4
2018-Feb-19 23:30N 33°37' W 118°16'815.7
2018-Feb-19 23:00N 33°45' W 118°16'0 0.3
2018-Feb-19 22:30N 33°45' W 118°16'0 0.0
2018-Feb-19 22:00N 33°45' W 118°16'0 0.0
2018-Feb-19 21:30N 33°45' W 118°16'0 0.6
2018-Feb-19 21:00N 33°45' W 118°17'612.0
2018-Feb-19 20:30N 33°39' W 118°17'3 1.3
2018-Feb-19 18:08N 33°36' W 118°20'324.7
2018-Feb-19 18:00N 33°39' W 118°18'611.6
2018-Feb-19 17:30N 33°45' W 118°16'0 0.2
2018-Feb-19 17:00N 33°45' W 118°16'0 0.0
2018-Feb-19 03:20N 33°45' W 118°16'2 4.9
2018-Feb-19 03:00N 33°43' W 118°16'10 1.3
2018-Feb-18 19:25N 33°33' W 118°16'1023.6
2018-Feb-18 19:00N 33°43' W 118°16'2 4.3
2018-Feb-18 18:30N 33°45' W 118°16'0 0.0
2018-Feb-18 18:00N 33°45' W 118°16'0 0.0
2018-Feb-17 21:38N 33°45' W 118°16'0 0.0
2018-Feb-17 21:30N 33°45' W 118°16'0 0.0
2018-Feb-17 21:01N 33°45' W 118°16'3 5.4
2018-Feb-17 20:30N 33°42' W 118°15'1325.8
2018-Feb-17 20:00N 33°32' W 118°24'7 5.4
2018-Feb-17 18:44N 33°27' W 118°30'419.7
2018-Feb-17 18:31N 33°30' W 118°26'17 4.6
2018-Feb-17 14:49N 33°45' W 118°16'0 0.0
2018-Feb-16 17:13N 33°45' W 118°16'0 0.0
2018-Feb-16 17:00N 33°45' W 118°16'0 0.0
2018-Feb-15 21:01N 33°45' W 118°16'0 0.0
2018-Feb-15 21:00N 33°45' W 118°16'3 6.0
2018-Feb-15 20:31N 33°42' W 118°15'1925.7
2018-Feb-15 19:45N 33°23' W 118°19'2 3.4
2018-Feb-15 19:08N 33°21' W 118°18'2424.7
2018-Feb-15 18:11N 33°26' W 117°51'524.9
2018-Feb-15 18:00N 33°26' W 117°45'3 6.6
2018-Feb-15 17:30N 33°28' W 117°42'0 0.0
2018-Feb-15 17:00N 33°28' W 117°42'0 0.0
2018-Feb-15 16:30N 33°28' W 117°42'0 0.0
2018-Feb-15 03:03N 33°28' W 117°42'0 0.0
2018-Feb-15 03:00N 33°28' W 117°42'0 0.0
2018-Feb-15 02:28N 33°28' W 117°42'0 0.0
2018-Feb-15 02:00N 33°28' W 117°42'713.3
2018-Feb-15 01:31N 33°26' W 117°49'1 0.2
2018-Feb-14 18:11N 33°25' W 117°51'725.3
2018-Feb-14 17:55N 33°27' W 117°43'2 3.6
2018-Feb-14 17:30N 33°28' W 117°42'0 0.0
2018-Feb-14 16:59N 33°28' W 117°42'0 0.0
2018-Feb-14 16:28N 33°28' W 117°42'0 0.0
2018-Feb-14 02:56N 33°28' W 117°42'0 0.0
2018-Feb-14 02:30N 33°28' W 117°42'0 0.0
2018-Feb-14 01:59N 33°28' W 117°42'714.4
2018-Feb-14 01:30N 33°26' W 117°49'26 6.5
2018-Feb-13 21:34N 33°21' W 118°20'25 7.4
2018-Feb-13 18:10N 33°26' W 117°50'525.1
2018-Feb-13 17:58N 33°27' W 117°44'3 5.0
2018-Feb-13 17:26N 33°28' W 117°42'0 0.0
2018-Feb-13 16:58N 33°28' W 117°42'0 0.1
2018-Feb-13 16:26N 33°28' W 117°41'0 0.0
2018-Feb-13 01:58N 33°28' W 117°42'1 0.1
2018-Feb-12 17:54N 33°27' W 117°42'1 2.4
2018-Feb-12 17:28N 33°28' W 117°42'0 0.0
2018-Feb-12 17:01N 33°28' W 117°42'0 0.0
2018-Feb-12 16:30N 33°28' W 117°42'0 0.0
2018-Feb-12 03:09N 33°28' W 117°42'0 0.0
2018-Feb-12 02:58N 33°28' W 117°42'0 0.0
2018-Feb-12 02:30N 33°28' W 117°42'0 0.4
2018-Feb-12 02:00N 33°27' W 117°42'3215.1
2018-Feb-11 23:53N 33°21' W 118°19'1024.6
2018-Feb-11 23:29N 33°22' W 118°07'1225.2
2018-Feb-11 23:00N 33°25' W 117°53'1019.7
2018-Feb-11 22:30N 33°28' W 117°42'0 0.0
2018-Feb-11 21:54N 33°28' W 117°42'0 0.0
2018-Feb-11 21:30N 33°28' W 117°42'3 6.9
2018-Feb-11 21:00N 33°27' W 117°46'2714.0
2018-Feb-11 19:05N 33°21' W 118°17'225.4
2018-Feb-11 19:00N 33°21' W 118°15'1324.7
2018-Feb-11 18:30N 33°24' W 118°00'1525.0
2018-Feb-11 17:55N 33°27' W 117°43'2 3.6
2018-Feb-11 17:30N 33°28' W 117°42'0 0.0
2018-Feb-11 17:00N 33°28' W 117°42'0 0.1
2018-Feb-11 16:29N 33°28' W 117°41'0 0.0
2018-Feb-11 04:00N 33°28' W 117°42'0 0.0
2018-Feb-11 03:30N 33°28' W 117°42'0 0.0
2018-Feb-11 02:59N 33°28' W 117°42'0 0.0
2018-Feb-11 02:30N 33°28' W 117°42'0 0.0
2018-Feb-11 02:00N 33°28' W 117°42'7 1.0
2018-Feb-10 18:11N 33°26' W 117°50'624.6
2018-Feb-10 17:57N 33°27' W 117°43'2 3.9
2018-Feb-10 17:31N 33°28' W 117°42'0 0.0
2018-Feb-10 16:58N 33°28' W 117°42'0 0.0
2018-Feb-10 16:29N 33°28' W 117°42'  
Track history (hours):
 
Tides and Currents Weather Stations Pressure Air Temp Water Temp Dewpoint Dewpoint Depression Visibility Wind Speed Wind Dir Waves Ship Positions

Super Express

Owner: CATALINA CHANNEL EXPRESS, Long Beach, CA. More information available from US FCC via Universal Licensing System and Coast Guard Vessel Documentation Center.

Last reported at 2018-Feb-20 03:10 UTC. Time now 2018-Feb-23 16:52 UTC.
Position N 33°45' W 118°16'.

Length 45 m; draft 1 m.

Type: High speed craft. MMSI: 366943940.

Date/timePositionNaut miles runAvg speedWind from/ knotsBaromVisibWave heightAir tempDewpointWater temp
2018-Feb-20 03:10N 33°45' W 118°16'0 0.0
2018-Feb-20 02:59N 33°45' W 118°16'0 0.0
2018-Feb-20 02:30N 33°45' W 118°16'1 2.7
2018-Feb-20 02:00N 33°44' W 118°16'7 3.0
2018-Feb-19 23:32N 33°36' W 118°16'123.4
2018-Feb-19 23:30N 33°37' W 118°16'815.7
2018-Feb-19 23:00N 33°45' W 118°16'0 0.3
2018-Feb-19 22:30N 33°45' W 118°16'0 0.0
2018-Feb-19 22:00N 33°45' W 118°16'0 0.0
2018-Feb-19 21:30N 33°45' W 118°16'0 0.6
2018-Feb-19 21:00N 33°45' W 118°17'612.0
2018-Feb-19 20:30N 33°39' W 118°17'3 1.3
2018-Feb-19 18:08N 33°36' W 118°20'324.7
2018-Feb-19 18:00N 33°39' W 118°18'611.6
2018-Feb-19 17:30N 33°45' W 118°16'0 0.2
2018-Feb-19 17:00N 33°45' W 118°16'0 0.0
2018-Feb-19 03:20N 33°45' W 118°16'2 4.9
2018-Feb-19 03:00N 33°43' W 118°16'10 1.3
2018-Feb-18 19:25N 33°33' W 118°16'1023.6
2018-Feb-18 19:00N 33°43' W 118°16'2 4.3
2018-Feb-18 18:30N 33°45' W 118°16'0 0.0
2018-Feb-18 18:00N 33°45' W 118°16'0 0.0
2018-Feb-17 21:38N 33°45' W 118°16'0 0.0
2018-Feb-17 21:30N 33°45' W 118°16'0 0.0
2018-Feb-17 21:01N 33°45' W 118°16'3 5.4
2018-Feb-17 20:30N 33°42' W 118°15'1325.8
2018-Feb-17 20:00N 33°32' W 118°24'7 5.4
2018-Feb-17 18:44N 33°27' W 118°30'419.7
2018-Feb-17 18:31N 33°30' W 118°26'17 4.6
2018-Feb-17 14:49N 33°45' W 118°16'0 0.0
2018-Feb-16 17:13N 33°45' W 118°16'0 0.0
2018-Feb-16 17:00N 33°45' W 118°16'0 0.0
2018-Feb-15 21:01N 33°45' W 118°16'0 0.0
2018-Feb-15 21:00N 33°45' W 118°16'3 6.0
2018-Feb-15 20:31N 33°42' W 118°15'1925.7
2018-Feb-15 19:45N 33°23' W 118°19'2 3.4
2018-Feb-15 19:08N 33°21' W 118°18'2424.7
2018-Feb-15 18:11N 33°26' W 117°51'524.9
2018-Feb-15 18:00N 33°26' W 117°45'3 6.6
2018-Feb-15 17:30N 33°28' W 117°42'0 0.0
2018-Feb-15 17:00N 33°28' W 117°42'0 0.0
2018-Feb-15 16:30N 33°28' W 117°42'0 0.0
2018-Feb-15 03:03N 33°28' W 117°42'0 0.0
2018-Feb-15 03:00N 33°28' W 117°42'0 0.0
2018-Feb-15 02:28N 33°28' W 117°42'0 0.0
2018-Feb-15 02:00N 33°28' W 117°42'713.3
2018-Feb-15 01:31N 33°26' W 117°49'1 0.2
2018-Feb-14 18:11N 33°25' W 117°51'725.3
2018-Feb-14 17:55N 33°27' W 117°43'2 3.6
2018-Feb-14 17:30N 33°28' W 117°42'0 0.0
2018-Feb-14 16:59N 33°28' W 117°42'0 0.0
2018-Feb-14 16:28N 33°28' W 117°42'0 0.0
2018-Feb-14 02:56N 33°28' W 117°42'0 0.0
2018-Feb-14 02:30N 33°28' W 117°42'0 0.0
2018-Feb-14 01:59N 33°28' W 117°42'714.4
2018-Feb-14 01:30N 33°26' W 117°49'26 6.5
2018-Feb-13 21:34N 33°21' W 118°20'25 7.4
2018-Feb-13 18:10N 33°26' W 117°50'525.1
2018-Feb-13 17:58N 33°27' W 117°44'3 5.0
2018-Feb-13 17:26N 33°28' W 117°42'0 0.0
2018-Feb-13 16:58N 33°28' W 117°42'0 0.1
2018-Feb-13 16:26N 33°28' W 117°41'0 0.0
2018-Feb-13 01:58N 33°28' W 117°42'1 0.1
2018-Feb-12 17:54N 33°27' W 117°42'1 2.4
2018-Feb-12 17:28N 33°28' W 117°42'0 0.0
2018-Feb-12 17:01N 33°28' W 117°42'0 0.0
2018-Feb-12 16:30N 33°28' W 117°42'0 0.0
2018-Feb-12 03:09N 33°28' W 117°42'0 0.0
2018-Feb-12 02:58N 33°28' W 117°42'0 0.0
2018-Feb-12 02:30N 33°28' W 117°42'0 0.4
2018-Feb-12 02:00N 33°27' W 117°42'3215.1
2018-Feb-11 23:53N 33°21' W 118°19'1024.6
2018-Feb-11 23:29N 33°22' W 118°07'1225.2
2018-Feb-11 23:00N 33°25' W 117°53'1019.7
2018-Feb-11 22:30N 33°28' W 117°42'0 0.0
2018-Feb-11 21:54N 33°28' W 117°42'0 0.0
2018-Feb-11 21:30N 33°28' W 117°42'3 6.9
2018-Feb-11 21:00N 33°27' W 117°46'2714.0
2018-Feb-11 19:05N 33°21' W 118°17'225.4
2018-Feb-11 19:00N 33°21' W 118°15'1324.7
2018-Feb-11 18:30N 33°24' W 118°00'1525.0
2018-Feb-11 17:55N 33°27' W 117°43'2 3.6
2018-Feb-11 17:30N 33°28' W 117°42'0 0.0
2018-Feb-11 17:00N 33°28' W 117°42'0 0.1
2018-Feb-11 16:29N 33°28' W 117°41'0 0.0
2018-Feb-11 04:00N 33°28' W 117°42'0 0.0
2018-Feb-11 03:30N 33°28' W 117°42'0 0.0
2018-Feb-11 02:59N 33°28' W 117°42'0 0.0
2018-Feb-11 02:30N 33°28' W 117°42'0 0.0
2018-Feb-11 02:00N 33°28' W 117°42'7 1.0
2018-Feb-10 18:11N 33°26' W 117°50'624.6
2018-Feb-10 17:57N 33°27' W 117°43'2 3.9
2018-Feb-10 17:31N 33°28' W 117°42'0 0.0
2018-Feb-10 16:58N 33°28' W 117°42'0 0.0
2018-Feb-10 16:29N 33°28' W 117°42'  

Dump ship's entire track history